Lower Peach Tree, Alabama
Current Conditions -  °F | °C
As of 5:53 AM on Friday 24 Oct 2014 (Local Time) from KGZH Reporting Station
Clear Clear  
Wind Chill: 50°   Ceiling: Unl
Heat Index: 50°   Visibility: 10mi
Dew Point: 46°   Wind: 5mph
Humidity: 86%   Direction: 330°NNW
Pressure: 30.08"   Gusts: NA
Location:  31.84°N, 87.55°W
Report Text: KGZH 241053Z AUTO 33004KT 10SM CLR 10/08 A3008 RMK AO2 SLP182 T01000078
Loading
Personal Weather Stations






























Interactive Weather Map New forecast layout! Learn more

10-Day Weather Forecast

Advertisements
Track Severe Weather on mobile